<?xml version="1.0" encoding="UTF-8" standalone="no" ?>
<gpx xmlns="http://www.topografix.com/GPX/1/1" creator="www.plotaroute.com" version="1.1"  xmlns:xsi="http://www.w3.org/2001/XMLSchema-instance" xsi:schemaLocation="http://www.topografix.com/GPX/1/1 http://www.topografix.com/GPX/1/1/gpx.xsd">
<metadata>
<desc>Route created on plotaroute.com</desc>
</metadata>
<wpt lat="50.279693" lon="-3.775354">
<time>2021-06-21T05:13:30Z</time>
<name>FINISH</name>
<cmt>FINISH</cmt>
<desc>FINISH</desc>
<sym>Flag, Blue</sym>
</wpt>
<trk>
<name>Primrose Trail Walking - SB To KB</name>
<trkseg>
<trkpt lat="50.427721" lon="-3.834081">
<ele>126</ele>
<time>2021-06-21T00:00:00Z</time></trkpt>
<trkpt lat="50.427753" lon="-3.834235">
<ele>125</ele>
<time>2021-06-21T00:00:09Z</time></trkpt>
<trkpt lat="50.42764" lon="-3.834284">
<ele>125</ele>
<time>2021-06-21T00:00:19Z</time></trkpt>
<trkpt lat="50.427621" lon="-3.834182">
<ele>125</ele>
<time>2021-06-21T00:00:25Z</time></trkpt>
<trkpt lat="50.427404" lon="-3.833471">
<ele>127</ele>
<time>2021-06-21T00:01:09Z</time></trkpt>
<trkpt lat="50.427411" lon="-3.833464">
<ele>127</ele>
<time>2021-06-21T00:01:10Z</time></trkpt>
<trkpt lat="50.427411" lon="-3.833463">
<ele>127</ele>
<time>2021-06-21T00:01:10Z</time></trkpt>
<trkpt lat="50.426714" lon="-3.834235">
<ele>124</ele>
<time>2021-06-21T00:02:12Z</time></trkpt>
<trkpt lat="50.426548" lon="-3.834375">
<ele>123</ele>
<time>2021-06-21T00:02:27Z</time></trkpt>
<trkpt lat="50.426453" lon="-3.834403">
<ele>123</ele>
<time>2021-06-21T00:02:34Z</time></trkpt>
<trkpt lat="50.426477" lon="-3.834536">
<ele>122</ele>
<time>2021-06-21T00:02:41Z</time></trkpt>
<trkpt lat="50.426486" lon="-3.834567">
<ele>122</ele>
<time>2021-06-21T00:02:43Z</time></trkpt>
<trkpt lat="50.426486" lon="-3.834567">
<ele>122</ele>
<time>2021-06-21T00:02:43Z</time></trkpt>
<trkpt lat="50.426477" lon="-3.834536">
<ele>122</ele>
<time>2021-06-21T00:02:45Z</time></trkpt>
<trkpt lat="50.426413" lon="-3.834216">
<ele>123</ele>
<time>2021-06-21T00:03:01Z</time></trkpt>
<trkpt lat="50.426319" lon="-3.834081">
<ele>123</ele>
<time>2021-06-21T00:03:11Z</time></trkpt>
<trkpt lat="50.426297" lon="-3.833874">
<ele>123</ele>
<time>2021-06-21T00:03:22Z</time></trkpt>
<trkpt lat="50.425833" lon="-3.832666">
<ele>123</ele>
<time>2021-06-21T00:04:35Z</time></trkpt>
<trkpt lat="50.425421" lon="-3.831534">
<ele>124</ele>
<time>2021-06-21T00:05:49Z</time></trkpt>
<trkpt lat="50.425123" lon="-3.830995">
<ele>126</ele>
<time>2021-06-21T00:06:32Z</time></trkpt>
<trkpt lat="50.424269" lon="-3.829701">
<ele>127</ele>
<time>2021-06-21T00:08:13Z</time></trkpt>
<trkpt lat="50.424186" lon="-3.829719">
<ele>127</ele>
<time>2021-06-21T00:08:21Z</time></trkpt>
<trkpt lat="50.424117" lon="-3.829666">
<ele>127</ele>
<time>2021-06-21T00:08:28Z</time></trkpt>
<trkpt lat="50.424079" lon="-3.829569">
<ele>127</ele>
<time>2021-06-21T00:08:35Z</time></trkpt>
<trkpt lat="50.424073" lon="-3.829511">
<ele>127</ele>
<time>2021-06-21T00:08:38Z</time></trkpt>
<trkpt lat="50.424081" lon="-3.829438">
<ele>127</ele>
<time>2021-06-21T00:08:43Z</time></trkpt>
<trkpt lat="50.42412" lon="-3.829347">
<ele>127</ele>
<time>2021-06-21T00:08:49Z</time></trkpt>
<trkpt lat="50.424053" lon="-3.829133">
<ele>128</ele>
<time>2021-06-21T00:09:03Z</time></trkpt>
<trkpt lat="50.423907" lon="-3.828861">
<ele>128</ele>
<time>2021-06-21T00:09:25Z</time></trkpt>
<trkpt lat="50.4226" lon="-3.826698">
<ele>136</ele>
<time>2021-06-21T00:12:35Z</time></trkpt>
<trkpt lat="50.4226" lon="-3.826698">
<ele>136</ele>
<time>2021-06-21T00:12:35Z</time></trkpt>
<trkpt lat="50.422567" lon="-3.826642">
<ele>136</ele>
<time>2021-06-21T00:12:40Z</time></trkpt>
<trkpt lat="50.422484" lon="-3.826511">
<ele>136</ele>
<time>2021-06-21T00:12:51Z</time></trkpt>
<trkpt lat="50.422368" lon="-3.826326">
<ele>136</ele>
<time>2021-06-21T00:13:06Z</time></trkpt>
<trkpt lat="50.421814" lon="-3.825608">
<ele>137</ele>
<time>2021-06-21T00:14:09Z</time></trkpt>
<trkpt lat="50.42124" lon="-3.8251">
<ele>134</ele>
<time>2021-06-21T00:14:57Z</time></trkpt>
<trkpt lat="50.420118" lon="-3.8244">
<ele>131</ele>
<time>2021-06-21T00:16:27Z</time></trkpt>
<trkpt lat="50.420118" lon="-3.8244">
<ele>131</ele>
<time>2021-06-21T00:16:27Z</time></trkpt>
<trkpt lat="50.419644" lon="-3.824085">
<ele>131</ele>
<time>2021-06-21T00:17:09Z</time></trkpt>
<trkpt lat="50.419344" lon="-3.823817">
<ele>131</ele>
<time>2021-06-21T00:17:35Z</time></trkpt>
<trkpt lat="50.418514" lon="-3.823003">
<ele>127</ele>
<time>2021-06-21T00:18:46Z</time></trkpt>
<trkpt lat="50.418205" lon="-3.822668">
<ele>125</ele>
<time>2021-06-21T00:19:13Z</time></trkpt>
<trkpt lat="50.417923" lon="-3.822406">
<ele>124</ele>
<time>2021-06-21T00:19:37Z</time></trkpt>
<trkpt lat="50.417775" lon="-3.822308">
<ele>123</ele>
<time>2021-06-21T00:19:48Z</time></trkpt>
<trkpt lat="50.417609" lon="-3.822262">
<ele>122</ele>
<time>2021-06-21T00:20:00Z</time></trkpt>
<trkpt lat="50.417387" lon="-3.822235">
<ele>121</ele>
<time>2021-06-21T00:20:15Z</time></trkpt>
<trkpt lat="50.416929" lon="-3.822097">
<ele>117</ele>
<time>2021-06-21T00:20:46Z</time></trkpt>
<trkpt lat="50.416685" lon="-3.821962">
<ele>115</ele>
<time>2021-06-21T00:21:03Z</time></trkpt>
<trkpt lat="50.416439" lon="-3.82177">
<ele>112</ele>
<time>2021-06-21T00:21:30Z</time></trkpt>
<trkpt lat="50.415996" lon="-3.821167">
<ele>104</ele>
<time>2021-06-21T00:22:33Z</time></trkpt>
<trkpt lat="50.415739" lon="-3.820769">
<ele>101</ele>
<time>2021-06-21T00:22:55Z</time></trkpt>
<trkpt lat="50.415483" lon="-3.82044">
<ele>98</ele>
<time>2021-06-21T00:23:16Z</time></trkpt>
<trkpt lat="50.414739" lon="-3.819656">
<ele>94</ele>
<time>2021-06-21T00:24:21Z</time></trkpt>
<trkpt lat="50.414348" lon="-3.819209">
<ele>92</ele>
<time>2021-06-21T00:24:55Z</time></trkpt>
<trkpt lat="50.414348" lon="-3.819209">
<ele>92</ele>
<time>2021-06-21T00:24:55Z</time></trkpt>
<trkpt lat="50.413472" lon="-3.818438">
<ele>88</ele>
<time>2021-06-21T00:26:09Z</time></trkpt>
<trkpt lat="50.41333" lon="-3.818284">
<ele>88</ele>
<time>2021-06-21T00:26:22Z</time></trkpt>
<trkpt lat="50.413069" lon="-3.8179">
<ele>85</ele>
<time>2021-06-21T00:26:46Z</time></trkpt>
<trkpt lat="50.412622" lon="-3.817303">
<ele>83</ele>
<time>2021-06-21T00:27:28Z</time></trkpt>
<trkpt lat="50.412503" lon="-3.817035">
<ele>82</ele>
<time>2021-06-21T00:27:44Z</time></trkpt>
<trkpt lat="50.412489" lon="-3.816938">
<ele>82</ele>
<time>2021-06-21T00:27:49Z</time></trkpt>
<trkpt lat="50.412481" lon="-3.816821">
<ele>82</ele>
<time>2021-06-21T00:27:55Z</time></trkpt>
<trkpt lat="50.412498" lon="-3.816416">
<ele>83</ele>
<time>2021-06-21T00:28:16Z</time></trkpt>
<trkpt lat="50.412508" lon="-3.816245">
<ele>83</ele>
<time>2021-06-21T00:28:25Z</time></trkpt>
<trkpt lat="50.412539" lon="-3.816072">
<ele>84</ele>
<time>2021-06-21T00:28:35Z</time></trkpt>
<trkpt lat="50.412538" lon="-3.815905">
<ele>84</ele>
<time>2021-06-21T00:28:45Z</time></trkpt>
<trkpt lat="50.412475" lon="-3.815483">
<ele>84</ele>
<time>2021-06-21T00:29:09Z</time></trkpt>
<trkpt lat="50.412475" lon="-3.815483">
<ele>84</ele>
<time>2021-06-21T00:29:09Z</time></trkpt>
<trkpt lat="50.412463" lon="-3.815407">
<ele>84</ele>
<time>2021-06-21T00:29:13Z</time></trkpt>
<trkpt lat="50.412383" lon="-3.814759">
<ele>85</ele>
<time>2021-06-21T00:29:50Z</time></trkpt>
<trkpt lat="50.412237" lon="-3.814094">
<ele>85</ele>
<time>2021-06-21T00:30:29Z</time></trkpt>
<trkpt lat="50.411719" lon="-3.812926">
<ele>84</ele>
<time>2021-06-21T00:31:41Z</time></trkpt>
<trkpt lat="50.411719" lon="-3.812926">
<ele>84</ele>
<time>2021-06-21T00:31:41Z</time></trkpt>
<trkpt lat="50.411701" lon="-3.812886">
<ele>84</ele>
<time>2021-06-21T00:31:43Z</time></trkpt>
<trkpt lat="50.41151" lon="-3.812585">
<ele>84</ele>
<time>2021-06-21T00:32:07Z</time></trkpt>
<trkpt lat="50.411386" lon="-3.812328">
<ele>84</ele>
<time>2021-06-21T00:32:25Z</time></trkpt>
<trkpt lat="50.411236" lon="-3.811791">
<ele>85</ele>
<time>2021-06-21T00:32:57Z</time></trkpt>
<trkpt lat="50.411045" lon="-3.810954">
<ele>85</ele>
<time>2021-06-21T00:33:41Z</time></trkpt>
<trkpt lat="50.410585" lon="-3.809342">
<ele>86</ele>
<time>2021-06-21T00:35:18Z</time></trkpt>
<trkpt lat="50.410483" lon="-3.80875">
<ele>87</ele>
<time>2021-06-21T00:35:55Z</time></trkpt>
<trkpt lat="50.410483" lon="-3.80875">
<ele>87</ele>
<time>2021-06-21T00:35:55Z</time></trkpt>
<trkpt lat="50.410475" lon="-3.808706">
<ele>87</ele>
<time>2021-06-21T00:35:57Z</time></trkpt>
<trkpt lat="50.409996" lon="-3.80787">
<ele>87</ele>
<time>2021-06-21T00:36:57Z</time></trkpt>
<trkpt lat="50.409909" lon="-3.807743">
<ele>87</ele>
<time>2021-06-21T00:37:06Z</time></trkpt>
<trkpt lat="50.409797" lon="-3.807711">
<ele>86</ele>
<time>2021-06-21T00:37:14Z</time></trkpt>
<trkpt lat="50.409696" lon="-3.807727">
<ele>85</ele>
<time>2021-06-21T00:37:22Z</time></trkpt>
<trkpt lat="50.40849" lon="-3.807692">
<ele>81</ele>
<time>2021-06-21T00:38:50Z</time></trkpt>
<trkpt lat="50.407992" lon="-3.807621">
<ele>80</ele>
<time>2021-06-21T00:39:28Z</time></trkpt>
<trkpt lat="50.407498" lon="-3.807682">
<ele>78</ele>
<time>2021-06-21T00:40:06Z</time></trkpt>
<trkpt lat="50.407132" lon="-3.807573">
<ele>77</ele>
<time>2021-06-21T00:40:34Z</time></trkpt>
<trkpt lat="50.406559" lon="-3.807546">
<ele>76</ele>
<time>2021-06-21T00:41:17Z</time></trkpt>
<trkpt lat="50.40634" lon="-3.807576">
<ele>76</ele>
<time>2021-06-21T00:41:34Z</time></trkpt>
<trkpt lat="50.406222" lon="-3.807569">
<ele>76</ele>
<time>2021-06-21T00:41:43Z</time></trkpt>
<trkpt lat="50.406222" lon="-3.807569">
<ele>76</ele>
<time>2021-06-21T00:41:43Z</time></trkpt>
<trkpt lat="50.405839" lon="-3.807505">
<ele>76</ele>
<time>2021-06-21T00:42:14Z</time></trkpt>
<trkpt lat="50.405536" lon="-3.807108">
<ele>75</ele>
<time>2021-06-21T00:42:45Z</time></trkpt>
<trkpt lat="50.405418" lon="-3.806465">
<ele>73</ele>
<time>2021-06-21T00:43:16Z</time></trkpt>
<trkpt lat="50.405166" lon="-3.805973">
<ele>73</ele>
<time>2021-06-21T00:43:46Z</time></trkpt>
<trkpt lat="50.404923" lon="-3.805632">
<ele>73</ele>
<time>2021-06-21T00:44:13Z</time></trkpt>
<trkpt lat="50.404764" lon="-3.805542">
<ele>73</ele>
<time>2021-06-21T00:44:26Z</time></trkpt>
<trkpt lat="50.403885" lon="-3.805462">
<ele>74</ele>
<time>2021-06-21T00:45:42Z</time></trkpt>
<trkpt lat="50.403441" lon="-3.805272">
<ele>75</ele>
<time>2021-06-21T00:46:19Z</time></trkpt>
<trkpt lat="50.402849" lon="-3.804859">
<ele>74</ele>
<time>2021-06-21T00:47:15Z</time></trkpt>
<trkpt lat="50.401428" lon="-3.803645">
<ele>76</ele>
<time>2021-06-21T00:49:31Z</time></trkpt>
<trkpt lat="50.401428" lon="-3.803645">
<ele>76</ele>
<time>2021-06-21T00:49:31Z</time></trkpt>
<trkpt lat="50.401296" lon="-3.803532">
<ele>76</ele>
<time>2021-06-21T00:49:42Z</time></trkpt>
<trkpt lat="50.400744" lon="-3.802829">
<ele>71</ele>
<time>2021-06-21T00:50:34Z</time></trkpt>
<trkpt lat="50.400529" lon="-3.802384">
<ele>69</ele>
<time>2021-06-21T00:50:58Z</time></trkpt>
<trkpt lat="50.400378" lon="-3.801967">
<ele>68</ele>
<time>2021-06-21T00:51:20Z</time></trkpt>
<trkpt lat="50.400268" lon="-3.801636">
<ele>68</ele>
<time>2021-06-21T00:51:39Z</time></trkpt>
<trkpt lat="50.40024" lon="-3.801394">
<ele>68</ele>
<time>2021-06-21T00:51:51Z</time></trkpt>
<trkpt lat="50.400301" lon="-3.801038">
<ele>68</ele>
<time>2021-06-21T00:52:09Z</time></trkpt>
<trkpt lat="50.400426" lon="-3.800513">
<ele>69</ele>
<time>2021-06-21T00:52:45Z</time></trkpt>
<trkpt lat="50.400532" lon="-3.799392">
<ele>72</ele>
<time>2021-06-21T00:53:55Z</time></trkpt>
<trkpt lat="50.400542" lon="-3.798101">
<ele>73</ele>
<time>2021-06-21T00:55:04Z</time></trkpt>
<trkpt lat="50.40051" lon="-3.797619">
<ele>73</ele>
<time>2021-06-21T00:55:29Z</time></trkpt>
<trkpt lat="50.400462" lon="-3.797223">
<ele>72</ele>
<time>2021-06-21T00:55:49Z</time></trkpt>
<trkpt lat="50.400322" lon="-3.797071">
<ele>70</ele>
<time>2021-06-21T00:56:01Z</time></trkpt>
<trkpt lat="50.400187" lon="-3.797026">
<ele>68</ele>
<time>2021-06-21T00:56:10Z</time></trkpt>
<trkpt lat="50.39947" lon="-3.796911">
<ele>68</ele>
<time>2021-06-21T00:57:04Z</time></trkpt>
<trkpt lat="50.39933" lon="-3.79684">
<ele>69</ele>
<time>2021-06-21T00:57:17Z</time></trkpt>
<trkpt lat="50.398849" lon="-3.795941">
<ele>67</ele>
<time>2021-06-21T00:58:20Z</time></trkpt>
<trkpt lat="50.398849" lon="-3.795941">
<ele>67</ele>
<time>2021-06-21T00:58:20Z</time></trkpt>
<trkpt lat="50.398548" lon="-3.795105">
<ele>69</ele>
<time>2021-06-21T00:59:13Z</time></trkpt>
<trkpt lat="50.398359" lon="-3.794882">
<ele>70</ele>
<time>2021-06-21T00:59:39Z</time></trkpt>
<trkpt lat="50.398085" lon="-3.794717">
<ele>71</ele>
<time>2021-06-21T01:00:11Z</time></trkpt>
<trkpt lat="50.397962" lon="-3.794463">
<ele>73</ele>
<time>2021-06-21T01:00:37Z</time></trkpt>
<trkpt lat="50.397884" lon="-3.794092">
<ele>76</ele>
<time>2021-06-21T01:01:18Z</time></trkpt>
<trkpt lat="50.397824" lon="-3.793543">
<ele>82</ele>
<time>2021-06-21T01:02:16Z</time></trkpt>
<trkpt lat="50.398025" lon="-3.792072">
<ele>95</ele>
<time>2021-06-21T01:04:48Z</time></trkpt>
<trkpt lat="50.398003" lon="-3.791801">
<ele>97</ele>
<time>2021-06-21T01:05:09Z</time></trkpt>
<trkpt lat="50.397786" lon="-3.791627">
<ele>99</ele>
<time>2021-06-21T01:05:39Z</time></trkpt>
<trkpt lat="50.397434" lon="-3.791419">
<ele>101</ele>
<time>2021-06-21T01:06:25Z</time></trkpt>
<trkpt lat="50.396874" lon="-3.791183">
<ele>102</ele>
<time>2021-06-21T01:07:20Z</time></trkpt>
<trkpt lat="50.396804" lon="-3.791135">
<ele>102</ele>
<time>2021-06-21T01:07:27Z</time></trkpt>
<trkpt lat="50.396804" lon="-3.791135">
<ele>102</ele>
<time>2021-06-21T01:07:27Z</time></trkpt>
<trkpt lat="50.396721" lon="-3.791078">
<ele>103</ele>
<time>2021-06-21T01:07:35Z</time></trkpt>
<trkpt lat="50.396608" lon="-3.791526">
<ele>102</ele>
<time>2021-06-21T01:07:57Z</time></trkpt>
<trkpt lat="50.396561" lon="-3.791649">
<ele>101</ele>
<time>2021-06-21T01:08:03Z</time></trkpt>
<trkpt lat="50.39623" lon="-3.792242">
<ele>97</ele>
<time>2021-06-21T01:08:36Z</time></trkpt>
<trkpt lat="50.396003" lon="-3.792689">
<ele>94</ele>
<time>2021-06-21T01:08:58Z</time></trkpt>
<trkpt lat="50.395716" lon="-3.792982">
<ele>90</ele>
<time>2021-06-21T01:09:19Z</time></trkpt>
<trkpt lat="50.39545" lon="-3.793218">
<ele>85</ele>
<time>2021-06-21T01:09:36Z</time></trkpt>
<trkpt lat="50.394896" lon="-3.793347">
<ele>79</ele>
<time>2021-06-21T01:10:08Z</time></trkpt>
<trkpt lat="50.394636" lon="-3.793476">
<ele>81</ele>
<time>2021-06-21T01:10:37Z</time></trkpt>
<trkpt lat="50.394513" lon="-3.793513">
<ele>82</ele>
<time>2021-06-21T01:10:50Z</time></trkpt>
<trkpt lat="50.39449" lon="-3.793658">
<ele>81</ele>
<time>2021-06-21T01:11:01Z</time></trkpt>
<trkpt lat="50.394445" lon="-3.793721">
<ele>81</ele>
<time>2021-06-21T01:11:07Z</time></trkpt>
<trkpt lat="50.394429" lon="-3.793614">
<ele>82</ele>
<time>2021-06-21T01:11:15Z</time></trkpt>
<trkpt lat="50.394429" lon="-3.793614">
<ele>82</ele>
<time>2021-06-21T01:11:15Z</time></trkpt>
<trkpt lat="50.394374" lon="-3.793245">
<ele>84</ele>
<time>2021-06-21T01:11:42Z</time></trkpt>
<trkpt lat="50.394325" lon="-3.791916">
<ele>92</ele>
<time>2021-06-21T01:13:36Z</time></trkpt>
<trkpt lat="50.394325" lon="-3.791916">
<ele>92</ele>
<time>2021-06-21T01:13:36Z</time></trkpt>
<trkpt lat="50.394323" lon="-3.791844">
<ele>92</ele>
<time>2021-06-21T01:13:41Z</time></trkpt>
<trkpt lat="50.393989" lon="-3.792159">
<ele>95</ele>
<time>2021-06-21T01:14:23Z</time></trkpt>
<trkpt lat="50.393843" lon="-3.79259">
<ele>95</ele>
<time>2021-06-21T01:14:58Z</time></trkpt>
<trkpt lat="50.393477" lon="-3.793092">
<ele>101</ele>
<time>2021-06-21T01:16:11Z</time></trkpt>
<trkpt lat="50.393125" lon="-3.793455">
<ele>105</ele>
<time>2021-06-21T01:17:07Z</time></trkpt>
<trkpt lat="50.392982" lon="-3.793697">
<ele>105</ele>
<time>2021-06-21T01:17:27Z</time></trkpt>
<trkpt lat="50.392733" lon="-3.793918">
<ele>106</ele>
<time>2021-06-21T01:17:54Z</time></trkpt>
<trkpt lat="50.392474" lon="-3.794077">
<ele>107</ele>
<time>2021-06-21T01:18:17Z</time></trkpt>
<trkpt lat="50.392279" lon="-3.794077">
<ele>104</ele>
<time>2021-06-21T01:18:29Z</time></trkpt>
<trkpt lat="50.391983" lon="-3.793947">
<ele>100</ele>
<time>2021-06-21T01:18:48Z</time></trkpt>
<trkpt lat="50.39138" lon="-3.793484">
<ele>95</ele>
<time>2021-06-21T01:19:26Z</time></trkpt>
<trkpt lat="50.391149" lon="-3.793335">
<ele>92</ele>
<time>2021-06-21T01:19:40Z</time></trkpt>
<trkpt lat="50.390889" lon="-3.793243">
<ele>86</ele>
<time>2021-06-21T01:19:56Z</time></trkpt>
<trkpt lat="50.390723" lon="-3.793095">
<ele>83</ele>
<time>2021-06-21T01:20:07Z</time></trkpt>
<trkpt lat="50.390648" lon="-3.792918">
<ele>82</ele>
<time>2021-06-21T01:20:15Z</time></trkpt>
<trkpt lat="50.390519" lon="-3.792483">
<ele>80</ele>
<time>2021-06-21T01:20:33Z</time></trkpt>
<trkpt lat="50.390268" lon="-3.792131">
<ele>76</ele>
<time>2021-06-21T01:20:52Z</time></trkpt>
<trkpt lat="50.389926" lon="-3.791918">
<ele>71</ele>
<time>2021-06-21T01:21:12Z</time></trkpt>
<trkpt lat="50.389351" lon="-3.791686">
<ele>66</ele>
<time>2021-06-21T01:21:55Z</time></trkpt>
<trkpt lat="50.389101" lon="-3.791417">
<ele>68</ele>
<time>2021-06-21T01:22:17Z</time></trkpt>
<trkpt lat="50.388628" lon="-3.791084">
<ele>68</ele>
<time>2021-06-21T01:22:58Z</time></trkpt>
<trkpt lat="50.388378" lon="-3.790972">
<ele>67</ele>
<time>2021-06-21T01:23:18Z</time></trkpt>
<trkpt lat="50.388119" lon="-3.790926">
<ele>68</ele>
<time>2021-06-21T01:23:39Z</time></trkpt>
<trkpt lat="50.387804" lon="-3.790972">
<ele>67</ele>
<time>2021-06-21T01:24:04Z</time></trkpt>
<trkpt lat="50.386052" lon="-3.79088">
<ele>66</ele>
<time>2021-06-21T01:26:25Z</time></trkpt>
<trkpt lat="50.385478" lon="-3.790926">
<ele>63</ele>
<time>2021-06-21T01:27:06Z</time></trkpt>
<trkpt lat="50.3852" lon="-3.791028">
<ele>61</ele>
<time>2021-06-21T01:27:25Z</time></trkpt>
<trkpt lat="50.384738" lon="-3.791136">
<ele>60</ele>
<time>2021-06-21T01:28:16Z</time></trkpt>
<trkpt lat="50.384672" lon="-3.790606">
<ele>65</ele>
<time>2021-06-21T01:28:58Z</time></trkpt>
<trkpt lat="50.384672" lon="-3.790606">
<ele>65</ele>
<time>2021-06-21T01:28:58Z</time></trkpt>
<trkpt lat="50.384668" lon="-3.790566">
<ele>65</ele>
<time>2021-06-21T01:29:02Z</time></trkpt>
<trkpt lat="50.384441" lon="-3.790733">
<ele>66</ele>
<time>2021-06-21T01:29:25Z</time></trkpt>
<trkpt lat="50.383918" lon="-3.791421">
<ele>67</ele>
<time>2021-06-21T01:30:22Z</time></trkpt>
<trkpt lat="50.383284" lon="-3.791919">
<ele>73</ele>
<time>2021-06-21T01:31:54Z</time></trkpt>
<trkpt lat="50.383187" lon="-3.791927">
<ele>73</ele>
<time>2021-06-21T01:32:05Z</time></trkpt>
<trkpt lat="50.382298" lon="-3.791735">
<ele>75</ele>
<time>2021-06-21T01:33:32Z</time></trkpt>
<trkpt lat="50.382034" lon="-3.791645">
<ele>73</ele>
<time>2021-06-21T01:33:51Z</time></trkpt>
<trkpt lat="50.378444" lon="-3.790053">
<ele>58</ele>
<time>2021-06-21T01:38:17Z</time></trkpt>
<trkpt lat="50.378369" lon="-3.790045">
<ele>57</ele>
<time>2021-06-21T01:38:22Z</time></trkpt>
<trkpt lat="50.378049" lon="-3.790206">
<ele>53</ele>
<time>2021-06-21T01:38:43Z</time></trkpt>
<trkpt lat="50.377973" lon="-3.790217">
<ele>52</ele>
<time>2021-06-21T01:38:48Z</time></trkpt>
<trkpt lat="50.377821" lon="-3.79017">
<ele>51</ele>
<time>2021-06-21T01:38:57Z</time></trkpt>
<trkpt lat="50.37771" lon="-3.790071">
<ele>51</ele>
<time>2021-06-21T01:39:06Z</time></trkpt>
<trkpt lat="50.37771" lon="-3.790071">
<ele>51</ele>
<time>2021-06-21T01:39:06Z</time></trkpt>
<trkpt lat="50.377363" lon="-3.789759">
<ele>49</ele>
<time>2021-06-21T01:39:36Z</time></trkpt>
<trkpt lat="50.377228" lon="-3.789605">
<ele>49</ele>
<time>2021-06-21T01:39:49Z</time></trkpt>
<trkpt lat="50.377104" lon="-3.789399">
<ele>49</ele>
<time>2021-06-21T01:40:03Z</time></trkpt>
<trkpt lat="50.377034" lon="-3.789277">
<ele>49</ele>
<time>2021-06-21T01:40:14Z</time></trkpt>
<trkpt lat="50.376752" lon="-3.788642">
<ele>52</ele>
<time>2021-06-21T01:41:07Z</time></trkpt>
<trkpt lat="50.376417" lon="-3.787755">
<ele>54</ele>
<time>2021-06-21T01:42:05Z</time></trkpt>
<trkpt lat="50.376356" lon="-3.787655">
<ele>54</ele>
<time>2021-06-21T01:42:12Z</time></trkpt>
<trkpt lat="50.376139" lon="-3.787441">
<ele>52</ele>
<time>2021-06-21T01:42:32Z</time></trkpt>
<trkpt lat="50.375884" lon="-3.787129">
<ele>50</ele>
<time>2021-06-21T01:43:04Z</time></trkpt>
<trkpt lat="50.375513" lon="-3.786523">
<ele>56</ele>
<time>2021-06-21T01:43:59Z</time></trkpt>
<trkpt lat="50.375125" lon="-3.786367">
<ele>60</ele>
<time>2021-06-21T01:44:54Z</time></trkpt>
<trkpt lat="50.374712" lon="-3.785976">
<ele>63</ele>
<time>2021-06-21T01:45:53Z</time></trkpt>
<trkpt lat="50.374712" lon="-3.785976">
<ele>63</ele>
<time>2021-06-21T01:45:53Z</time></trkpt>
<trkpt lat="50.374516" lon="-3.785788">
<ele>62</ele>
<time>2021-06-21T01:46:10Z</time></trkpt>
<trkpt lat="50.374032" lon="-3.785456">
<ele>60</ele>
<time>2021-06-21T01:46:49Z</time></trkpt>
<trkpt lat="50.373797" lon="-3.785112">
<ele>61</ele>
<time>2021-06-21T01:47:15Z</time></trkpt>
<trkpt lat="50.37355" lon="-3.784851">
<ele>60</ele>
<time>2021-06-21T01:47:39Z</time></trkpt>
<trkpt lat="50.373463" lon="-3.784731">
<ele>60</ele>
<time>2021-06-21T01:47:48Z</time></trkpt>
<trkpt lat="50.373028" lon="-3.784444">
<ele>61</ele>
<time>2021-06-21T01:48:26Z</time></trkpt>
<trkpt lat="50.372127" lon="-3.783894">
<ele>63</ele>
<time>2021-06-21T01:50:00Z</time></trkpt>
<trkpt lat="50.371334" lon="-3.78362">
<ele>68</ele>
<time>2021-06-21T01:51:24Z</time></trkpt>
<trkpt lat="50.370742" lon="-3.783725">
<ele>70</ele>
<time>2021-06-21T01:52:50Z</time></trkpt>
<trkpt lat="50.370264" lon="-3.78402">
<ele>81</ele>
<time>2021-06-21T01:54:10Z</time></trkpt>
<trkpt lat="50.36892" lon="-3.785528">
<ele>83</ele>
<time>2021-06-21T01:56:59Z</time></trkpt>
<trkpt lat="50.368711" lon="-3.786213">
<ele>68</ele>
<time>2021-06-21T01:58:00Z</time></trkpt>
<trkpt lat="50.367481" lon="-3.787312">
<ele>45</ele>
<time>2021-06-21T02:00:21Z</time></trkpt>
<trkpt lat="50.367275" lon="-3.787438">
<ele>44</ele>
<time>2021-06-21T02:00:34Z</time></trkpt>
<trkpt lat="50.367029" lon="-3.787374">
<ele>44</ele>
<time>2021-06-21T02:00:53Z</time></trkpt>
<trkpt lat="50.367029" lon="-3.787374">
<ele>44</ele>
<time>2021-06-21T02:00:53Z</time></trkpt>
<trkpt lat="50.366975" lon="-3.78736">
<ele>44</ele>
<time>2021-06-21T02:00:59Z</time></trkpt>
<trkpt lat="50.366655" lon="-3.786671">
<ele>45</ele>
<time>2021-06-21T02:01:54Z</time></trkpt>
<trkpt lat="50.366043" lon="-3.78595">
<ele>50</ele>
<time>2021-06-21T02:03:07Z</time></trkpt>
<trkpt lat="50.365307" lon="-3.785307">
<ele>51</ele>
<time>2021-06-21T02:04:26Z</time></trkpt>
<trkpt lat="50.36469" lon="-3.784716">
<ele>49</ele>
<time>2021-06-21T02:05:23Z</time></trkpt>
<trkpt lat="50.36442" lon="-3.784553">
<ele>48</ele>
<time>2021-06-21T02:05:47Z</time></trkpt>
<trkpt lat="50.364327" lon="-3.784471">
<ele>48</ele>
<time>2021-06-21T02:05:59Z</time></trkpt>
<trkpt lat="50.364168" lon="-3.78415">
<ele>50</ele>
<time>2021-06-21T02:06:27Z</time></trkpt>
<trkpt lat="50.364168" lon="-3.784093">
<ele>51</ele>
<time>2021-06-21T02:06:31Z</time></trkpt>
<trkpt lat="50.364168" lon="-3.784093">
<ele>51</ele>
<time>2021-06-21T02:06:31Z</time></trkpt>
<trkpt lat="50.364168" lon="-3.78415">
<ele>50</ele>
<time>2021-06-21T02:06:35Z</time></trkpt>
<trkpt lat="50.363705" lon="-3.783777">
<ele>56</ele>
<time>2021-06-21T02:07:44Z</time></trkpt>
<trkpt lat="50.363245" lon="-3.783342">
<ele>65</ele>
<time>2021-06-21T02:09:12Z</time></trkpt>
<trkpt lat="50.362643" lon="-3.782999">
<ele>67</ele>
<time>2021-06-21T02:10:24Z</time></trkpt>
<trkpt lat="50.362095" lon="-3.782398">
<ele>77</ele>
<time>2021-06-21T02:12:09Z</time></trkpt>
<trkpt lat="50.361493" lon="-3.781797">
<ele>89</ele>
<time>2021-06-21T02:14:22Z</time></trkpt>
<trkpt lat="50.361165" lon="-3.781539">
<ele>97</ele>
<time>2021-06-21T02:15:32Z</time></trkpt>
<trkpt lat="50.36111" lon="-3.78111">
<ele>103</ele>
<time>2021-06-21T02:16:19Z</time></trkpt>
<trkpt lat="50.361274" lon="-3.779995">
<ele>111</ele>
<time>2021-06-21T02:18:13Z</time></trkpt>
<trkpt lat="50.361402" lon="-3.779358">
<ele>116</ele>
<time>2021-06-21T02:19:14Z</time></trkpt>
<trkpt lat="50.361402" lon="-3.779358">
<ele>116</ele>
<time>2021-06-21T02:19:14Z</time></trkpt>
<trkpt lat="50.361493" lon="-3.778707">
<ele>120</ele>
<time>2021-06-21T02:20:13Z</time></trkpt>
<trkpt lat="50.361467" lon="-3.778561">
<ele>121</ele>
<time>2021-06-21T02:20:25Z</time></trkpt>
<trkpt lat="50.361218" lon="-3.777814">
<ele>126</ele>
<time>2021-06-21T02:21:35Z</time></trkpt>
<trkpt lat="50.36108" lon="-3.777675">
<ele>127</ele>
<time>2021-06-21T02:21:56Z</time></trkpt>
<trkpt lat="50.360585" lon="-3.777306">
<ele>132</ele>
<time>2021-06-21T02:23:07Z</time></trkpt>
<trkpt lat="50.360539" lon="-3.777191">
<ele>133</ele>
<time>2021-06-21T02:23:18Z</time></trkpt>
<trkpt lat="50.360542" lon="-3.77614">
<ele>136</ele>
<time>2021-06-21T02:24:32Z</time></trkpt>
<trkpt lat="50.360509" lon="-3.775916">
<ele>137</ele>
<time>2021-06-21T02:24:47Z</time></trkpt>
<trkpt lat="50.360453" lon="-3.775789">
<ele>137</ele>
<time>2021-06-21T02:25:01Z</time></trkpt>
<trkpt lat="50.359577" lon="-3.774587">
<ele>147</ele>
<time>2021-06-21T02:27:30Z</time></trkpt>
<trkpt lat="50.359248" lon="-3.773815">
<ele>150</ele>
<time>2021-06-21T02:28:28Z</time></trkpt>
<trkpt lat="50.35903" lon="-3.773031">
<ele>151</ele>
<time>2021-06-21T02:29:20Z</time></trkpt>
<trkpt lat="50.359008" lon="-3.77182">
<ele>152</ele>
<time>2021-06-21T02:30:27Z</time></trkpt>
<trkpt lat="50.359019" lon="-3.771444">
<ele>153</ele>
<time>2021-06-21T02:30:44Z</time></trkpt>
<trkpt lat="50.359019" lon="-3.771435">
<ele>153</ele>
<time>2021-06-21T02:30:45Z</time></trkpt>
<trkpt lat="50.359019" lon="-3.771435">
<ele>153</ele>
<time>2021-06-21T02:30:45Z</time></trkpt>
<trkpt lat="50.359019" lon="-3.771444">
<ele>153</ele>
<time>2021-06-21T02:30:45Z</time></trkpt>
<trkpt lat="50.358803" lon="-3.771268">
<ele>149</ele>
<time>2021-06-21T02:31:00Z</time></trkpt>
<trkpt lat="50.358153" lon="-3.769391">
<ele>137</ele>
<time>2021-06-21T02:32:29Z</time></trkpt>
<trkpt lat="50.358043" lon="-3.767377">
<ele>137</ele>
<time>2021-06-21T02:34:11Z</time></trkpt>
<trkpt lat="50.357983" lon="-3.766818">
<ele>138</ele>
<time>2021-06-21T02:34:44Z</time></trkpt>
<trkpt lat="50.357972" lon="-3.766525">
<ele>138</ele>
<time>2021-06-21T02:35:03Z</time></trkpt>
<trkpt lat="50.357903" lon="-3.766301">
<ele>139</ele>
<time>2021-06-21T02:35:19Z</time></trkpt>
<trkpt lat="50.357706" lon="-3.765935">
<ele>140</ele>
<time>2021-06-21T02:35:50Z</time></trkpt>
<trkpt lat="50.357584" lon="-3.765573">
<ele>142</ele>
<time>2021-06-21T02:36:18Z</time></trkpt>
<trkpt lat="50.357502" lon="-3.765438">
<ele>143</ele>
<time>2021-06-21T02:36:31Z</time></trkpt>
<trkpt lat="50.357429" lon="-3.765382">
<ele>143</ele>
<time>2021-06-21T02:36:40Z</time></trkpt>
<trkpt lat="50.356855" lon="-3.765195">
<ele>146</ele>
<time>2021-06-21T02:37:50Z</time></trkpt>
<trkpt lat="50.356346" lon="-3.764974">
<ele>151</ele>
<time>2021-06-21T02:38:58Z</time></trkpt>
<trkpt lat="50.356092" lon="-3.764831">
<ele>154</ele>
<time>2021-06-21T02:39:39Z</time></trkpt>
<trkpt lat="50.35536" lon="-3.764232">
<ele>164</ele>
<time>2021-06-21T02:41:31Z</time></trkpt>
<trkpt lat="50.355023" lon="-3.764003">
<ele>166</ele>
<time>2021-06-21T02:42:11Z</time></trkpt>
<trkpt lat="50.355023" lon="-3.764003">
<ele>166</ele>
<time>2021-06-21T02:42:11Z</time></trkpt>
<trkpt lat="50.354978" lon="-3.763972">
<ele>166</ele>
<time>2021-06-21T02:42:16Z</time></trkpt>
<trkpt lat="50.354665" lon="-3.76481">
<ele>161</ele>
<time>2021-06-21T02:43:01Z</time></trkpt>
<trkpt lat="50.354114" lon="-3.76616">
<ele>156</ele>
<time>2021-06-21T02:44:14Z</time></trkpt>
<trkpt lat="50.35357" lon="-3.767127">
<ele>152</ele>
<time>2021-06-21T02:45:10Z</time></trkpt>
<trkpt lat="50.352251" lon="-3.769321">
<ele>136</ele>
<time>2021-06-21T02:47:14Z</time></trkpt>
<trkpt lat="50.351768" lon="-3.770453">
<ele>129</ele>
<time>2021-06-21T02:48:08Z</time></trkpt>
<trkpt lat="50.351692" lon="-3.770511">
<ele>129</ele>
<time>2021-06-21T02:48:13Z</time></trkpt>
<trkpt lat="50.35171" lon="-3.770593">
<ele>128</ele>
<time>2021-06-21T02:48:16Z</time></trkpt>
<trkpt lat="50.35171" lon="-3.770593">
<ele>128</ele>
<time>2021-06-21T02:48:16Z</time></trkpt>
<trkpt lat="50.351722" lon="-3.770645">
<ele>128</ele>
<time>2021-06-21T02:48:19Z</time></trkpt>
<trkpt lat="50.351704" lon="-3.770794">
<ele>127</ele>
<time>2021-06-21T02:48:24Z</time></trkpt>
<trkpt lat="50.351445" lon="-3.771398">
<ele>120</ele>
<time>2021-06-21T02:48:54Z</time></trkpt>
<trkpt lat="50.351104" lon="-3.772011">
<ele>117</ele>
<time>2021-06-21T02:49:28Z</time></trkpt>
<trkpt lat="50.350583" lon="-3.773203">
<ele>111</ele>
<time>2021-06-21T02:50:30Z</time></trkpt>
<trkpt lat="50.349901" lon="-3.774938">
<ele>104</ele>
<time>2021-06-21T02:51:57Z</time></trkpt>
<trkpt lat="50.34886" lon="-3.777856">
<ele>90</ele>
<time>2021-06-21T02:54:23Z</time></trkpt>
<trkpt lat="50.348659" lon="-3.778733">
<ele>88</ele>
<time>2021-06-21T02:55:07Z</time></trkpt>
<trkpt lat="50.348659" lon="-3.778733">
<ele>88</ele>
<time>2021-06-21T02:55:07Z</time></trkpt>
<trkpt lat="50.348531" lon="-3.779401">
<ele>87</ele>
<time>2021-06-21T02:55:46Z</time></trkpt>
<trkpt lat="50.348498" lon="-3.779755">
<ele>88</ele>
<time>2021-06-21T02:56:06Z</time></trkpt>
<trkpt lat="50.348203" lon="-3.780174">
<ele>87</ele>
<time>2021-06-21T02:56:47Z</time></trkpt>
<trkpt lat="50.347676" lon="-3.780699">
<ele>77</ele>
<time>2021-06-21T02:57:54Z</time></trkpt>
<trkpt lat="50.347402" lon="-3.781235">
<ele>68</ele>
<time>2021-06-21T02:58:41Z</time></trkpt>
<trkpt lat="50.347471" lon="-3.781515">
<ele>66</ele>
<time>2021-06-21T02:59:02Z</time></trkpt>
<trkpt lat="50.348128" lon="-3.78218">
<ele>57</ele>
<time>2021-06-21T02:59:53Z</time></trkpt>
<trkpt lat="50.348422" lon="-3.782148">
<ele>58</ele>
<time>2021-06-21T03:00:22Z</time></trkpt>
<trkpt lat="50.34858" lon="-3.78248">
<ele>48</ele>
<time>2021-06-21T03:00:53Z</time></trkpt>
<trkpt lat="50.348556" lon="-3.782538">
<ele>48</ele>
<time>2021-06-21T03:00:58Z</time></trkpt>
<trkpt lat="50.348556" lon="-3.782538">
<ele>48</ele>
<time>2021-06-21T03:00:58Z</time></trkpt>
<trkpt lat="50.348415" lon="-3.782888">
<ele>43</ele>
<time>2021-06-21T03:01:29Z</time></trkpt>
<trkpt lat="50.347936" lon="-3.783145">
<ele>37</ele>
<time>2021-06-21T03:02:06Z</time></trkpt>
<trkpt lat="50.347053" lon="-3.782662">
<ele>39</ele>
<time>2021-06-21T03:03:16Z</time></trkpt>
<trkpt lat="50.346622" lon="-3.782587">
<ele>36</ele>
<time>2021-06-21T03:03:50Z</time></trkpt>
<trkpt lat="50.345622" lon="-3.782215">
<ele>39</ele>
<time>2021-06-21T03:05:13Z</time></trkpt>
<trkpt lat="50.345622" lon="-3.782215">
<ele>39</ele>
<time>2021-06-21T03:05:13Z</time></trkpt>
<trkpt lat="50.345504" lon="-3.782171">
<ele>40</ele>
<time>2021-06-21T03:05:23Z</time></trkpt>
<trkpt lat="50.344693" lon="-3.782233">
<ele>34</ele>
<time>2021-06-21T03:06:19Z</time></trkpt>
<trkpt lat="50.344338" lon="-3.782227">
<ele>32</ele>
<time>2021-06-21T03:06:46Z</time></trkpt>
<trkpt lat="50.343858" lon="-3.782135">
<ele>32</ele>
<time>2021-06-21T03:07:32Z</time></trkpt>
<trkpt lat="50.343858" lon="-3.782135">
<ele>32</ele>
<time>2021-06-21T03:07:32Z</time></trkpt>
<trkpt lat="50.343775" lon="-3.782119">
<ele>33</ele>
<time>2021-06-21T03:07:40Z</time></trkpt>
<trkpt lat="50.343307" lon="-3.78186">
<ele>39</ele>
<time>2021-06-21T03:09:04Z</time></trkpt>
<trkpt lat="50.342895" lon="-3.781871">
<ele>50</ele>
<time>2021-06-21T03:10:23Z</time></trkpt>
<trkpt lat="50.342294" lon="-3.782554">
<ele>47</ele>
<time>2021-06-21T03:11:18Z</time></trkpt>
<trkpt lat="50.341613" lon="-3.784051">
<ele>32</ele>
<time>2021-06-21T03:13:12Z</time></trkpt>
<trkpt lat="50.341601" lon="-3.784117">
<ele>31</ele>
<time>2021-06-21T03:13:15Z</time></trkpt>
<trkpt lat="50.341601" lon="-3.784117">
<ele>31</ele>
<time>2021-06-21T03:13:15Z</time></trkpt>
<trkpt lat="50.341552" lon="-3.784394">
<ele>32</ele>
<time>2021-06-21T03:13:30Z</time></trkpt>
<trkpt lat="50.341285" lon="-3.784762">
<ele>34</ele>
<time>2021-06-21T03:13:58Z</time></trkpt>
<trkpt lat="50.340991" lon="-3.785085">
<ele>34</ele>
<time>2021-06-21T03:14:29Z</time></trkpt>
<trkpt lat="50.340819" lon="-3.785209">
<ele>34</ele>
<time>2021-06-21T03:14:45Z</time></trkpt>
<trkpt lat="50.340643" lon="-3.785302">
<ele>35</ele>
<time>2021-06-21T03:15:02Z</time></trkpt>
<trkpt lat="50.340229" lon="-3.785483">
<ele>34</ele>
<time>2021-06-21T03:15:33Z</time></trkpt>
<trkpt lat="50.339949" lon="-3.785558">
<ele>33</ele>
<time>2021-06-21T03:15:54Z</time></trkpt>
<trkpt lat="50.339525" lon="-3.785551">
<ele>31</ele>
<time>2021-06-21T03:16:29Z</time></trkpt>
<trkpt lat="50.339308" lon="-3.785496">
<ele>31</ele>
<time>2021-06-21T03:16:49Z</time></trkpt>
<trkpt lat="50.338988" lon="-3.785359">
<ele>34</ele>
<time>2021-06-21T03:17:19Z</time></trkpt>
<trkpt lat="50.338988" lon="-3.785359">
<ele>34</ele>
<time>2021-06-21T03:17:19Z</time></trkpt>
<trkpt lat="50.33821" lon="-3.784905">
<ele>39</ele>
<time>2021-06-21T03:18:55Z</time></trkpt>
<trkpt lat="50.337975" lon="-3.784296">
<ele>43</ele>
<time>2021-06-21T03:19:47Z</time></trkpt>
<trkpt lat="50.337832" lon="-3.784018">
<ele>43</ele>
<time>2021-06-21T03:20:13Z</time></trkpt>
<trkpt lat="50.337058" lon="-3.782794">
<ele>38</ele>
<time>2021-06-21T03:21:32Z</time></trkpt>
<trkpt lat="50.336876" lon="-3.782534">
<ele>35</ele>
<time>2021-06-21T03:21:48Z</time></trkpt>
<trkpt lat="50.336876" lon="-3.782534">
<ele>35</ele>
<time>2021-06-21T03:21:48Z</time></trkpt>
<trkpt lat="50.336593" lon="-3.782129">
<ele>34</ele>
<time>2021-06-21T03:22:15Z</time></trkpt>
<trkpt lat="50.335933" lon="-3.781662">
<ele>35</ele>
<time>2021-06-21T03:23:23Z</time></trkpt>
<trkpt lat="50.335614" lon="-3.781582">
<ele>35</ele>
<time>2021-06-21T03:23:48Z</time></trkpt>
<trkpt lat="50.335235" lon="-3.781705">
<ele>33</ele>
<time>2021-06-21T03:24:17Z</time></trkpt>
<trkpt lat="50.334817" lon="-3.781737">
<ele>32</ele>
<time>2021-06-21T03:24:47Z</time></trkpt>
<trkpt lat="50.334415" lon="-3.781693">
<ele>29</ele>
<time>2021-06-21T03:25:16Z</time></trkpt>
<trkpt lat="50.334415" lon="-3.781694">
<ele>29</ele>
<time>2021-06-21T03:25:16Z</time></trkpt>
<trkpt lat="50.333563" lon="-3.781576">
<ele>30</ele>
<time>2021-06-21T03:26:29Z</time></trkpt>
<trkpt lat="50.333269" lon="-3.781705">
<ele>32</ele>
<time>2021-06-21T03:26:59Z</time></trkpt>
<trkpt lat="50.333118" lon="-3.78208">
<ele>33</ele>
<time>2021-06-21T03:27:27Z</time></trkpt>
<trkpt lat="50.332838" lon="-3.783185">
<ele>33</ele>
<time>2021-06-21T03:28:34Z</time></trkpt>
<trkpt lat="50.332605" lon="-3.783582">
<ele>33</ele>
<time>2021-06-21T03:29:02Z</time></trkpt>
<trkpt lat="50.332471" lon="-3.783851">
<ele>32</ele>
<time>2021-06-21T03:29:19Z</time></trkpt>
<trkpt lat="50.332471" lon="-3.783851">
<ele>32</ele>
<time>2021-06-21T03:29:19Z</time></trkpt>
<trkpt lat="50.332338" lon="-3.784118">
<ele>32</ele>
<time>2021-06-21T03:29:35Z</time></trkpt>
<trkpt lat="50.332151" lon="-3.784419">
<ele>32</ele>
<time>2021-06-21T03:29:56Z</time></trkpt>
<trkpt lat="50.332061" lon="-3.784636">
<ele>31</ele>
<time>2021-06-21T03:30:12Z</time></trkpt>
<trkpt lat="50.331505" lon="-3.784786">
<ele>37</ele>
<time>2021-06-21T03:31:21Z</time></trkpt>
<trkpt lat="50.331095" lon="-3.784784">
<ele>41</ele>
<time>2021-06-21T03:32:12Z</time></trkpt>
<trkpt lat="50.331095" lon="-3.784784">
<ele>41</ele>
<time>2021-06-21T03:32:12Z</time></trkpt>
<trkpt lat="50.330573" lon="-3.784679">
<ele>44</ele>
<time>2021-06-21T03:33:16Z</time></trkpt>
<trkpt lat="50.330191" lon="-3.78453">
<ele>43</ele>
<time>2021-06-21T03:33:49Z</time></trkpt>
<trkpt lat="50.330025" lon="-3.784465">
<ele>43</ele>
<time>2021-06-21T03:34:02Z</time></trkpt>
<trkpt lat="50.329669" lon="-3.784186">
<ele>42</ele>
<time>2021-06-21T03:34:32Z</time></trkpt>
<trkpt lat="50.329081" lon="-3.783632">
<ele>39</ele>
<time>2021-06-21T03:35:22Z</time></trkpt>
<trkpt lat="50.328574" lon="-3.782752">
<ele>38</ele>
<time>2021-06-21T03:36:18Z</time></trkpt>
<trkpt lat="50.32804" lon="-3.781894">
<ele>36</ele>
<time>2021-06-21T03:37:15Z</time></trkpt>
<trkpt lat="50.327591" lon="-3.781476">
<ele>32</ele>
<time>2021-06-21T03:37:53Z</time></trkpt>
<trkpt lat="50.327591" lon="-3.781476">
<ele>32</ele>
<time>2021-06-21T03:37:53Z</time></trkpt>
<trkpt lat="50.327436" lon="-3.781332">
<ele>32</ele>
<time>2021-06-21T03:38:07Z</time></trkpt>
<trkpt lat="50.326917" lon="-3.780971">
<ele>33</ele>
<time>2021-06-21T03:38:53Z</time></trkpt>
<trkpt lat="50.326437" lon="-3.781036">
<ele>33</ele>
<time>2021-06-21T03:39:36Z</time></trkpt>
<trkpt lat="50.325752" lon="-3.781207">
<ele>37</ele>
<time>2021-06-21T03:40:51Z</time></trkpt>
<trkpt lat="50.32372" lon="-3.782542">
<ele>33</ele>
<time>2021-06-21T03:43:46Z</time></trkpt>
<trkpt lat="50.32372" lon="-3.782542">
<ele>33</ele>
<time>2021-06-21T03:43:46Z</time></trkpt>
<trkpt lat="50.32245" lon="-3.783392">
<ele>25</ele>
<time>2021-06-21T03:45:22Z</time></trkpt>
<trkpt lat="50.321249" lon="-3.784382">
<ele>23</ele>
<time>2021-06-21T03:47:06Z</time></trkpt>
<trkpt lat="50.321311" lon="-3.784219">
<ele>24</ele>
<time>2021-06-21T03:47:15Z</time></trkpt>
<trkpt lat="50.321311" lon="-3.784219">
<ele>24</ele>
<time>2021-06-21T03:47:15Z</time></trkpt>
<trkpt lat="50.321249" lon="-3.784382">
<ele>23</ele>
<time>2021-06-21T03:47:24Z</time></trkpt>
<trkpt lat="50.320907" lon="-3.784835">
<ele>21</ele>
<time>2021-06-21T03:47:58Z</time></trkpt>
<trkpt lat="50.320361" lon="-3.785496">
<ele>23</ele>
<time>2021-06-21T03:49:00Z</time></trkpt>
<trkpt lat="50.320004" lon="-3.786052">
<ele>23</ele>
<time>2021-06-21T03:49:41Z</time></trkpt>
<trkpt lat="50.320025" lon="-3.786116">
<ele>22</ele>
<time>2021-06-21T03:49:45Z</time></trkpt>
<trkpt lat="50.320025" lon="-3.786116">
<ele>22</ele>
<time>2021-06-21T03:49:45Z</time></trkpt>
<trkpt lat="50.320112" lon="-3.786433">
<ele>20</ele>
<time>2021-06-21T03:50:00Z</time></trkpt>
<trkpt lat="50.320112" lon="-3.786659">
<ele>19</ele>
<time>2021-06-21T03:50:10Z</time></trkpt>
<trkpt lat="50.319992" lon="-3.786852">
<ele>19</ele>
<time>2021-06-21T03:50:23Z</time></trkpt>
<trkpt lat="50.319991" lon="-3.787151">
<ele>18</ele>
<time>2021-06-21T03:50:38Z</time></trkpt>
<trkpt lat="50.319874" lon="-3.78758">
<ele>19</ele>
<time>2021-06-21T03:51:01Z</time></trkpt>
<trkpt lat="50.31984" lon="-3.788073">
<ele>18</ele>
<time>2021-06-21T03:51:25Z</time></trkpt>
<trkpt lat="50.319833" lon="-3.788771">
<ele>18</ele>
<time>2021-06-21T03:51:59Z</time></trkpt>
<trkpt lat="50.319851" lon="-3.788863">
<ele>17</ele>
<time>2021-06-21T03:52:04Z</time></trkpt>
<trkpt lat="50.319851" lon="-3.788863">
<ele>17</ele>
<time>2021-06-21T03:52:04Z</time></trkpt>
<trkpt lat="50.319986" lon="-3.789574">
<ele>14</ele>
<time>2021-06-21T03:52:45Z</time></trkpt>
<trkpt lat="50.319882" lon="-3.789612">
<ele>16</ele>
<time>2021-06-21T03:52:56Z</time></trkpt>
<trkpt lat="50.319677" lon="-3.789634">
<ele>20</ele>
<time>2021-06-21T03:53:16Z</time></trkpt>
<trkpt lat="50.319677" lon="-3.789634">
<ele>20</ele>
<time>2021-06-21T03:53:16Z</time></trkpt>
<trkpt lat="50.319658" lon="-3.789636">
<ele>20</ele>
<time>2021-06-21T03:53:18Z</time></trkpt>
<trkpt lat="50.319652" lon="-3.790213">
<ele>18</ele>
<time>2021-06-21T03:53:52Z</time></trkpt>
<trkpt lat="50.319543" lon="-3.790867">
<ele>15</ele>
<time>2021-06-21T03:54:23Z</time></trkpt>
<trkpt lat="50.319321" lon="-3.79157">
<ele>13</ele>
<time>2021-06-21T03:54:59Z</time></trkpt>
<trkpt lat="50.319045" lon="-3.792344">
<ele>13</ele>
<time>2021-06-21T03:55:42Z</time></trkpt>
<trkpt lat="50.31878" lon="-3.792971">
<ele>17</ele>
<time>2021-06-21T03:56:40Z</time></trkpt>
<trkpt lat="50.318497" lon="-3.793389">
<ele>19</ele>
<time>2021-06-21T03:57:28Z</time></trkpt>
<trkpt lat="50.318381" lon="-3.79356">
<ele>19</ele>
<time>2021-06-21T03:57:47Z</time></trkpt>
<trkpt lat="50.318144" lon="-3.794063">
<ele>22</ele>
<time>2021-06-21T03:58:36Z</time></trkpt>
<trkpt lat="50.317948" lon="-3.79433">
<ele>26</ele>
<time>2021-06-21T03:59:05Z</time></trkpt>
<trkpt lat="50.31779" lon="-3.794931">
<ele>26</ele>
<time>2021-06-21T03:59:38Z</time></trkpt>
<trkpt lat="50.317715" lon="-3.795403">
<ele>24</ele>
<time>2021-06-21T04:00:02Z</time></trkpt>
<trkpt lat="50.317509" lon="-3.796239">
<ele>21</ele>
<time>2021-06-21T04:00:44Z</time></trkpt>
<trkpt lat="50.317184" lon="-3.797391">
<ele>20</ele>
<time>2021-06-21T04:01:43Z</time></trkpt>
<trkpt lat="50.316841" lon="-3.798464">
<ele>15</ele>
<time>2021-06-21T04:02:36Z</time></trkpt>
<trkpt lat="50.316539" lon="-3.799079">
<ele>12</ele>
<time>2021-06-21T04:03:15Z</time></trkpt>
<trkpt lat="50.316407" lon="-3.799257">
<ele>13</ele>
<time>2021-06-21T04:03:33Z</time></trkpt>
<trkpt lat="50.316258" lon="-3.799362">
<ele>14</ele>
<time>2021-06-21T04:03:50Z</time></trkpt>
<trkpt lat="50.31627" lon="-3.79947">
<ele>15</ele>
<time>2021-06-21T04:03:57Z</time></trkpt>
<trkpt lat="50.31627" lon="-3.79947">
<ele>15</ele>
<time>2021-06-21T04:03:57Z</time></trkpt>
<trkpt lat="50.3162" lon="-3.79956">
<ele>15</ele>
<time>2021-06-21T04:04:06Z</time></trkpt>
<trkpt lat="50.315765" lon="-3.79998">
<ele>15</ele>
<time>2021-06-21T04:04:49Z</time></trkpt>
<trkpt lat="50.315467" lon="-3.800142">
<ele>15</ele>
<time>2021-06-21T04:05:13Z</time></trkpt>
<trkpt lat="50.315299" lon="-3.800203">
<ele>15</ele>
<time>2021-06-21T04:05:26Z</time></trkpt>
<trkpt lat="50.315299" lon="-3.800203">
<ele>15</ele>
<time>2021-06-21T04:05:26Z</time></trkpt>
<trkpt lat="50.31524" lon="-3.800225">
<ele>15</ele>
<time>2021-06-21T04:05:30Z</time></trkpt>
<trkpt lat="50.314894" lon="-3.800244">
<ele>13</ele>
<time>2021-06-21T04:05:55Z</time></trkpt>
<trkpt lat="50.314524" lon="-3.800323">
<ele>11</ele>
<time>2021-06-21T04:06:21Z</time></trkpt>
<trkpt lat="50.314485" lon="-3.80013">
<ele>10</ele>
<time>2021-06-21T04:06:32Z</time></trkpt>
<trkpt lat="50.314372" lon="-3.800129">
<ele>9</ele>
<time>2021-06-21T04:06:41Z</time></trkpt>
<trkpt lat="50.314341" lon="-3.800341">
<ele>11</ele>
<time>2021-06-21T04:06:52Z</time></trkpt>
<trkpt lat="50.313849" lon="-3.800525">
<ele>11</ele>
<time>2021-06-21T04:07:33Z</time></trkpt>
<trkpt lat="50.313446" lon="-3.800561">
<ele>12</ele>
<time>2021-06-21T04:08:08Z</time></trkpt>
<trkpt lat="50.313294" lon="-3.800562">
<ele>12</ele>
<time>2021-06-21T04:08:22Z</time></trkpt>
<trkpt lat="50.312895" lon="-3.800513">
<ele>12</ele>
<time>2021-06-21T04:08:53Z</time></trkpt>
<trkpt lat="50.31279" lon="-3.8003">
<ele>10</ele>
<time>2021-06-21T04:09:05Z</time></trkpt>
<trkpt lat="50.312639" lon="-3.800262">
<ele>10</ele>
<time>2021-06-21T04:09:17Z</time></trkpt>
<trkpt lat="50.312639" lon="-3.800262">
<ele>10</ele>
<time>2021-06-21T04:09:17Z</time></trkpt>
<trkpt lat="50.31248" lon="-3.80024">
<ele>9</ele>
<time>2021-06-21T04:09:28Z</time></trkpt>
<trkpt lat="50.312269" lon="-3.800291">
<ele>10</ele>
<time>2021-06-21T04:09:45Z</time></trkpt>
<trkpt lat="50.312166" lon="-3.800288">
<ele>9</ele>
<time>2021-06-21T04:09:53Z</time></trkpt>
<trkpt lat="50.312069" lon="-3.800345">
<ele>10</ele>
<time>2021-06-21T04:10:01Z</time></trkpt>
<trkpt lat="50.311811" lon="-3.800365">
<ele>9</ele>
<time>2021-06-21T04:10:22Z</time></trkpt>
<trkpt lat="50.311696" lon="-3.800238">
<ele>9</ele>
<time>2021-06-21T04:10:33Z</time></trkpt>
<trkpt lat="50.311423" lon="-3.800432">
<ele>9</ele>
<time>2021-06-21T04:10:57Z</time></trkpt>
<trkpt lat="50.311283" lon="-3.800476">
<ele>9</ele>
<time>2021-06-21T04:11:08Z</time></trkpt>
<trkpt lat="50.31087" lon="-3.800726">
<ele>8</ele>
<time>2021-06-21T04:11:42Z</time></trkpt>
<trkpt lat="50.310425" lon="-3.801088">
<ele>6</ele>
<time>2021-06-21T04:12:19Z</time></trkpt>
<trkpt lat="50.310218" lon="-3.801169">
<ele>5</ele>
<time>2021-06-21T04:12:34Z</time></trkpt>
<trkpt lat="50.31006" lon="-3.80111">
<ele>5</ele>
<time>2021-06-21T04:12:51Z</time></trkpt>
<trkpt lat="50.309975" lon="-3.801212">
<ele>5</ele>
<time>2021-06-21T04:13:04Z</time></trkpt>
<trkpt lat="50.309975" lon="-3.801212">
<ele>5</ele>
<time>2021-06-21T04:13:04Z</time></trkpt>
<trkpt lat="50.30928" lon="-3.80148">
<ele>12</ele>
<time>2021-06-21T04:14:27Z</time></trkpt>
<trkpt lat="50.30918" lon="-3.80157">
<ele>12</ele>
<time>2021-06-21T04:14:36Z</time></trkpt>
<trkpt lat="50.30906" lon="-3.80185">
<ele>11</ele>
<time>2021-06-21T04:14:53Z</time></trkpt>
<trkpt lat="50.30884" lon="-3.80222">
<ele>10</ele>
<time>2021-06-21T04:15:19Z</time></trkpt>
<trkpt lat="50.30876" lon="-3.802019">
<ele>12</ele>
<time>2021-06-21T04:15:37Z</time></trkpt>
<trkpt lat="50.30876" lon="-3.802019">
<ele>12</ele>
<time>2021-06-21T04:15:37Z</time></trkpt>
<trkpt lat="50.308752" lon="-3.802">
<ele>12</ele>
<time>2021-06-21T04:15:39Z</time></trkpt>
<trkpt lat="50.308661" lon="-3.801875">
<ele>14</ele>
<time>2021-06-21T04:15:54Z</time></trkpt>
<trkpt lat="50.307881" lon="-3.801507">
<ele>18</ele>
<time>2021-06-21T04:17:29Z</time></trkpt>
<trkpt lat="50.307465" lon="-3.801207">
<ele>19</ele>
<time>2021-06-21T04:18:09Z</time></trkpt>
<trkpt lat="50.307007" lon="-3.800959">
<ele>20</ele>
<time>2021-06-21T04:18:57Z</time></trkpt>
<trkpt lat="50.306817" lon="-3.800648">
<ele>21</ele>
<time>2021-06-21T04:19:25Z</time></trkpt>
<trkpt lat="50.30664" lon="-3.800277">
<ele>23</ele>
<time>2021-06-21T04:20:01Z</time></trkpt>
<trkpt lat="50.306501" lon="-3.799916">
<ele>26</ele>
<time>2021-06-21T04:20:39Z</time></trkpt>
<trkpt lat="50.306586" lon="-3.798951">
<ele>33</ele>
<time>2021-06-21T04:22:04Z</time></trkpt>
<trkpt lat="50.30662" lon="-3.798393">
<ele>35</ele>
<time>2021-06-21T04:22:48Z</time></trkpt>
<trkpt lat="50.306615" lon="-3.798237">
<ele>36</ele>
<time>2021-06-21T04:23:00Z</time></trkpt>
<trkpt lat="50.306485" lon="-3.797419">
<ele>41</ele>
<time>2021-06-21T04:24:15Z</time></trkpt>
<trkpt lat="50.306286" lon="-3.796869">
<ele>46</ele>
<time>2021-06-21T04:25:13Z</time></trkpt>
<trkpt lat="50.305856" lon="-3.795878">
<ele>55</ele>
<time>2021-06-21T04:27:03Z</time></trkpt>
<trkpt lat="50.305641" lon="-3.795635">
<ele>58</ele>
<time>2021-06-21T04:27:39Z</time></trkpt>
<trkpt lat="50.305341" lon="-3.795379">
<ele>61</ele>
<time>2021-06-21T04:28:26Z</time></trkpt>
<trkpt lat="50.304736" lon="-3.795106">
<ele>69</ele>
<time>2021-06-21T04:30:06Z</time></trkpt>
<trkpt lat="50.304337" lon="-3.794832">
<ele>76</ele>
<time>2021-06-21T04:31:20Z</time></trkpt>
<trkpt lat="50.303681" lon="-3.794631">
<ele>82</ele>
<time>2021-06-21T04:32:46Z</time></trkpt>
<trkpt lat="50.303489" lon="-3.79455">
<ele>84</ele>
<time>2021-06-21T04:33:10Z</time></trkpt>
<trkpt lat="50.303001" lon="-3.794086">
<ele>85</ele>
<time>2021-06-21T04:34:08Z</time></trkpt>
<trkpt lat="50.302494" lon="-3.793268">
<ele>90</ele>
<time>2021-06-21T04:35:25Z</time></trkpt>
<trkpt lat="50.301987" lon="-3.793121">
<ele>91</ele>
<time>2021-06-21T04:36:19Z</time></trkpt>
<trkpt lat="50.301431" lon="-3.793024">
<ele>93</ele>
<time>2021-06-21T04:37:17Z</time></trkpt>
<trkpt lat="50.299959" lon="-3.792332">
<ele>104</ele>
<time>2021-06-21T04:40:20Z</time></trkpt>
<trkpt lat="50.299959" lon="-3.792332">
<ele>104</ele>
<time>2021-06-21T04:40:20Z</time></trkpt>
<trkpt lat="50.299221" lon="-3.792023">
<ele>104</ele>
<time>2021-06-21T04:41:21Z</time></trkpt>
<trkpt lat="50.298981" lon="-3.791894">
<ele>103</ele>
<time>2021-06-21T04:41:40Z</time></trkpt>
<trkpt lat="50.29838" lon="-3.791509">
<ele>101</ele>
<time>2021-06-21T04:42:29Z</time></trkpt>
<trkpt lat="50.298013" lon="-3.791071">
<ele>100</ele>
<time>2021-06-21T04:43:05Z</time></trkpt>
<trkpt lat="50.296922" lon="-3.790012">
<ele>98</ele>
<time>2021-06-21T04:44:45Z</time></trkpt>
<trkpt lat="50.296871" lon="-3.789805">
<ele>98</ele>
<time>2021-06-21T04:44:56Z</time></trkpt>
<trkpt lat="50.296871" lon="-3.789805">
<ele>98</ele>
<time>2021-06-21T04:44:56Z</time></trkpt>
<trkpt lat="50.296867" lon="-3.789789">
<ele>98</ele>
<time>2021-06-21T04:44:56Z</time></trkpt>
<trkpt lat="50.296762" lon="-3.788162">
<ele>97</ele>
<time>2021-06-21T04:46:16Z</time></trkpt>
<trkpt lat="50.29668" lon="-3.787701">
<ele>96</ele>
<time>2021-06-21T04:46:39Z</time></trkpt>
<trkpt lat="50.296464" lon="-3.786771">
<ele>95</ele>
<time>2021-06-21T04:47:29Z</time></trkpt>
<trkpt lat="50.296276" lon="-3.786188">
<ele>95</ele>
<time>2021-06-21T04:48:02Z</time></trkpt>
<trkpt lat="50.296066" lon="-3.785743">
<ele>95</ele>
<time>2021-06-21T04:48:30Z</time></trkpt>
<trkpt lat="50.295358" lon="-3.785107">
<ele>93</ele>
<time>2021-06-21T04:49:32Z</time></trkpt>
<trkpt lat="50.295007" lon="-3.784719">
<ele>91</ele>
<time>2021-06-21T04:50:03Z</time></trkpt>
<trkpt lat="50.294133" lon="-3.783178">
<ele>81</ele>
<time>2021-06-21T04:51:27Z</time></trkpt>
<trkpt lat="50.293398" lon="-3.78199">
<ele>70</ele>
<time>2021-06-21T04:52:30Z</time></trkpt>
<trkpt lat="50.292865" lon="-3.780824">
<ele>62</ele>
<time>2021-06-21T04:53:30Z</time></trkpt>
<trkpt lat="50.29255" lon="-3.780203">
<ele>59</ele>
<time>2021-06-21T04:54:04Z</time></trkpt>
<trkpt lat="50.29255" lon="-3.780203">
<ele>59</ele>
<time>2021-06-21T04:54:04Z</time></trkpt>
<trkpt lat="50.292227" lon="-3.779503">
<ele>51</ele>
<time>2021-06-21T04:55:04Z</time></trkpt>
<trkpt lat="50.291964" lon="-3.778842">
<ele>43</ele>
<time>2021-06-21T04:55:46Z</time></trkpt>
<trkpt lat="50.291743" lon="-3.778342">
<ele>38</ele>
<time>2021-06-21T04:56:07Z</time></trkpt>
<trkpt lat="50.291518" lon="-3.777486">
<ele>35</ele>
<time>2021-06-21T04:56:46Z</time></trkpt>
<trkpt lat="50.291499" lon="-3.777374">
<ele>35</ele>
<time>2021-06-21T04:56:51Z</time></trkpt>
<trkpt lat="50.29138" lon="-3.777203">
<ele>34</ele>
<time>2021-06-21T04:57:03Z</time></trkpt>
<trkpt lat="50.291295" lon="-3.77688">
<ele>33</ele>
<time>2021-06-21T04:57:20Z</time></trkpt>
<trkpt lat="50.291326" lon="-3.776872">
<ele>33</ele>
<time>2021-06-21T04:57:23Z</time></trkpt>
<trkpt lat="50.291326" lon="-3.776872">
<ele>33</ele>
<time>2021-06-21T04:57:23Z</time></trkpt>
<trkpt lat="50.291295" lon="-3.77688">
<ele>33</ele>
<time>2021-06-21T04:57:27Z</time></trkpt>
<trkpt lat="50.290849" lon="-3.77706">
<ele>34</ele>
<time>2021-06-21T04:58:13Z</time></trkpt>
<trkpt lat="50.290596" lon="-3.777128">
<ele>36</ele>
<time>2021-06-21T04:58:40Z</time></trkpt>
<trkpt lat="50.290596" lon="-3.77714">
<ele>36</ele>
<time>2021-06-21T04:58:41Z</time></trkpt>
<trkpt lat="50.290596" lon="-3.77714">
<ele>36</ele>
<time>2021-06-21T04:58:41Z</time></trkpt>
<trkpt lat="50.290596" lon="-3.777128">
<ele>36</ele>
<time>2021-06-21T04:58:42Z</time></trkpt>
<trkpt lat="50.289673" lon="-3.777446">
<ele>41</ele>
<time>2021-06-21T05:00:28Z</time></trkpt>
<trkpt lat="50.28902" lon="-3.777574">
<ele>37</ele>
<time>2021-06-21T05:01:12Z</time></trkpt>
<trkpt lat="50.288869" lon="-3.777653">
<ele>36</ele>
<time>2021-06-21T05:01:23Z</time></trkpt>
<trkpt lat="50.28809" lon="-3.777724">
<ele>30</ele>
<time>2021-06-21T05:02:14Z</time></trkpt>
<trkpt lat="50.28809" lon="-3.777724">
<ele>30</ele>
<time>2021-06-21T05:02:14Z</time></trkpt>
<trkpt lat="50.287023" lon="-3.777839">
<ele>25</ele>
<time>2021-06-21T05:03:30Z</time></trkpt>
<trkpt lat="50.286196" lon="-3.777872">
<ele>23</ele>
<time>2021-06-21T05:04:33Z</time></trkpt>
<trkpt lat="50.285768" lon="-3.777854">
<ele>22</ele>
<time>2021-06-21T05:05:05Z</time></trkpt>
<trkpt lat="50.285373" lon="-3.777871">
<ele>20</ele>
<time>2021-06-21T05:05:32Z</time></trkpt>
<trkpt lat="50.284046" lon="-3.777377">
<ele>9</ele>
<time>2021-06-21T05:07:01Z</time></trkpt>
<trkpt lat="50.284046" lon="-3.777377">
<ele>9</ele>
<time>2021-06-21T05:07:01Z</time></trkpt>
<trkpt lat="50.283715" lon="-3.776865">
<ele>5</ele>
<time>2021-06-21T05:07:31Z</time></trkpt>
<trkpt lat="50.283628" lon="-3.776784">
<ele>4</ele>
<time>2021-06-21T05:07:37Z</time></trkpt>
<trkpt lat="50.283527" lon="-3.776761">
<ele>4</ele>
<time>2021-06-21T05:07:44Z</time></trkpt>
<trkpt lat="50.283362" lon="-3.776769">
<ele>3</ele>
<time>2021-06-21T05:07:58Z</time></trkpt>
<trkpt lat="50.283331" lon="-3.776784">
<ele>3</ele>
<time>2021-06-21T05:08:00Z</time></trkpt>
<trkpt lat="50.283288" lon="-3.776747">
<ele>3</ele>
<time>2021-06-21T05:08:04Z</time></trkpt>
<trkpt lat="50.283287" lon="-3.77666">
<ele>3</ele>
<time>2021-06-21T05:08:09Z</time></trkpt>
<trkpt lat="50.283171" lon="-3.7765">
<ele>3</ele>
<time>2021-06-21T05:08:21Z</time></trkpt>
<trkpt lat="50.282782" lon="-3.776062">
<ele>3</ele>
<time>2021-06-21T05:08:59Z</time></trkpt>
<trkpt lat="50.282721" lon="-3.776144">
<ele>3</ele>
<time>2021-06-21T05:09:06Z</time></trkpt>
<trkpt lat="50.282584" lon="-3.776441">
<ele>4</ele>
<time>2021-06-21T05:09:25Z</time></trkpt>
<trkpt lat="50.282436" lon="-3.776457">
<ele>4</ele>
<time>2021-06-21T05:09:37Z</time></trkpt>
<trkpt lat="50.282381" lon="-3.776408">
<ele>4</ele>
<time>2021-06-21T05:09:42Z</time></trkpt>
<trkpt lat="50.282381" lon="-3.776408">
<ele>4</ele>
<time>2021-06-21T05:09:42Z</time></trkpt>
<trkpt lat="50.282245" lon="-3.776285">
<ele>4</ele>
<time>2021-06-21T05:09:55Z</time></trkpt>
<trkpt lat="50.280021" lon="-3.775489">
<ele>5</ele>
<time>2021-06-21T05:13:03Z</time></trkpt>
<trkpt lat="50.279693" lon="-3.775354">
<ele>4</ele>
<time>2021-06-21T05:13:30Z</time></trkpt>
<trkpt lat="50.279693" lon="-3.775354">
<ele>4</ele>
<time>2021-06-21T05:13:30Z</time></trkpt>
</trkseg>
</trk>
</gpx>